createdAt,value
2019-02-11T00:01:43.138Z,28.33
2019-02-11T00:04:12.787Z,30.10
2019-02-11T00:06:42.498Z,27.57
2019-02-11T00:09:12.230Z,29.10
2019-02-11T00:11:41.874Z,27.37
2019-02-11T00:14:11.513Z,28.93
2019-02-11T00:16:41.174Z,28.10
2019-02-11T00:22:31.609Z,26.73
2019-02-11T00:25:01.230Z,27.93
2019-02-11T00:27:31.418Z,28.90
2019-02-11T00:30:01.109Z,27.87
2019-02-11T00:32:30.766Z,27.73
2019-02-11T00:35:00.454Z,26.60
2019-02-11T00:37:30.114Z,27.77
2019-02-11T00:39:59.755Z,27.27
2019-02-11T00:42:29.457Z,28.90
2019-02-11T00:44:59.097Z,26.57
2019-02-11T00:47:28.846Z,25.73
2019-02-11T00:49:58.529Z,27.40
2019-02-11T00:52:28.206Z,27.13
2019-02-11T00:54:57.880Z,26.90
2019-02-11T00:57:27.609Z,25.73
2019-02-11T00:59:57.362Z,27.00
2019-02-11T01:02:27.033Z,25.33
2019-02-11T01:04:56.669Z,26.83
2019-02-11T01:07:26.386Z,26.43
2019-02-11T01:09:56.082Z,26.43
2019-02-11T01:12:25.789Z,24.87
2019-02-11T01:14:55.548Z,26.10
2019-02-11T01:17:25.282Z,24.30
2019-02-11T01:19:54.958Z,25.60
2019-02-11T01:22:24.661Z,25.30
2019-02-11T01:24:54.380Z,26.70
2019-02-11T01:27:24.023Z,26.57
2019-02-11T01:29:53.650Z,25.57
2019-02-11T01:32:23.373Z,26.60
2019-02-11T01:34:53.106Z,26.93
2019-02-11T01:37:22.790Z,26.17
2019-02-11T01:39:52.463Z,24.43
2019-02-11T01:42:22.111Z,26.20
2019-02-11T01:44:51.840Z,26.10
2019-02-11T01:47:21.522Z,26.30
2019-02-11T01:49:51.197Z,26.47
2019-02-11T01:52:21.350Z,25.40
2019-02-11T01:54:50.990Z,26.23
2019-02-11T01:57:20.691Z,24.73
2019-02-11T01:59:50.406Z,25.60
2019-02-11T02:02:20.515Z,26.60
2019-02-11T02:04:50.210Z,26.13
2019-02-11T02:07:19.862Z,26.63
2019-02-11T02:09:49.557Z,26.50
2019-02-11T02:12:19.268Z,26.63
2019-02-11T02:14:48.942Z,25.10
2019-02-11T02:17:19.043Z,26.13
2019-02-11T02:19:48.791Z,28.40
2019-02-11T02:22:18.486Z,28.17
2019-02-11T02:24:51.333Z,27.43
2019-02-11T02:27:21.012Z,27.30
2019-02-11T02:29:50.694Z,27.30
2019-02-11T02:32:20.350Z,26.47
2019-02-11T02:34:49.990Z,28.63
2019-02-11T02:37:19.659Z,26.83
2019-02-11T02:39:49.406Z,28.13
2019-02-11T02:42:19.174Z,28.73
2019-02-11T02:44:48.837Z,28.53
2019-02-11T02:47:18.590Z,29.60
2019-02-11T02:49:48.266Z,29.73
2019-02-11T02:52:17.902Z,29.90
2019-02-11T02:54:47.629Z,29.67
2019-02-11T02:57:17.307Z,29.83
2019-02-11T02:59:47.498Z,30.73
2019-02-11T03:02:17.138Z,31.40
2019-02-11T03:04:46.842Z,29.33
2019-02-11T03:07:16.492Z,31.03
2019-02-11T03:09:46.144Z,29.23
2019-02-11T03:12:15.850Z,30.50
2019-02-11T03:14:45.531Z,30.63
2019-02-11T03:17:15.206Z,30.57
2019-02-11T03:19:44.913Z,31.33
2019-02-11T03:22:14.551Z,29.13
2019-02-11T03:24:44.598Z,29.97
2019-02-11T03:27:14.609Z,29.80
2019-02-11T03:29:44.286Z,30.80
2019-02-11T03:32:14.061Z,30.53
2019-02-11T03:34:43.728Z,31.17
2019-02-11T03:37:13.418Z,31.10
2019-02-11T03:39:43.114Z,30.73
2019-02-11T03:42:12.766Z,32.97
2019-02-11T03:44:42.408Z,32.37
2019-02-11T03:47:12.573Z,32.97
2019-02-11T03:49:42.210Z,34.53
2019-02-11T03:52:11.893Z,32.07
2019-02-11T03:54:41.949Z,32.10
2019-02-11T03:57:11.608Z,32.10
2019-02-11T03:59:41.320Z,34.97
2019-02-11T04:02:10.983Z,37.57
2019-02-11T04:04:40.718Z,37.70
2019-02-11T04:07:10.362Z,37.63
2019-02-11T04:09:40.034Z,39.60
2019-02-11T04:12:09.797Z,41.03
2019-02-11T04:14:39.494Z,47.60
2019-02-11T04:17:09.222Z,56.37
2019-02-11T04:19:38.905Z,64.90
2019-02-11T04:22:09.755Z,68.47
2019-02-11T04:24:39.494Z,63.90
2019-02-11T04:27:09.167Z,65.07
2019-02-11T04:29:38.873Z,72.23
2019-02-11T04:32:08.610Z,61.90
2019-02-11T04:34:38.332Z,61.57
2019-02-11T04:37:08.303Z,52.90
2019-02-11T04:39:38.012Z,48.87
2019-02-11T04:42:07.644Z,45.90
2019-02-11T04:44:37.350Z,42.87
2019-02-11T04:47:06.980Z,42.83
2019-02-11T04:49:36.646Z,36.73
2019-02-11T04:52:06.301Z,37.43
2019-02-11T04:54:36.324Z,34.87
2019-02-11T04:57:05.974Z,35.27
2019-02-11T04:59:35.702Z,34.63
2019-02-11T05:02:05.342Z,34.20
2019-02-11T05:04:34.991Z,31.93
2019-02-11T05:07:04.759Z,33.60
2019-02-11T05:09:34.441Z,33.77
2019-02-11T05:12:04.078Z,36.30
2019-02-11T05:14:43.224Z,35.40
2019-02-11T05:17:05.390Z,34.17
2019-02-11T05:19:35.043Z,33.03
2019-02-11T05:22:04.739Z,34.73
2019-02-11T05:24:34.465Z,32.67
2019-02-11T05:27:04.112Z,32.70
2019-02-11T05:29:33.790Z,33.07
2019-02-11T05:32:03.487Z,33.40
2019-02-11T05:34:33.129Z,33.67
2019-02-11T05:37:02.759Z,32.43
2019-02-11T05:39:32.496Z,34.03
2019-02-11T05:42:02.126Z,33.30
2019-02-11T05:44:31.802Z,32.80
2019-02-11T05:47:01.526Z,33.43
2019-02-11T05:49:31.205Z,33.50
2019-02-11T05:52:00.944Z,32.07
2019-02-11T05:54:30.625Z,33.10
2019-02-11T05:57:00.319Z,32.57
2019-02-11T05:59:30.073Z,34.33
2019-02-11T06:01:59.831Z,35.93
2019-02-11T06:04:29.528Z,35.63
2019-02-11T06:06:59.212Z,33.53
2019-02-11T06:09:28.929Z,36.07
2019-02-11T06:11:58.569Z,38.17
2019-02-11T06:14:28.289Z,33.87
2019-02-11T06:16:58.044Z,32.27
2019-02-11T06:19:27.722Z,32.93
2019-02-11T06:21:57.408Z,31.77
2019-02-11T06:24:27.281Z,33.40
2019-02-11T06:26:56.944Z,39.03
2019-02-11T06:29:26.630Z,37.17
2019-02-11T06:31:56.378Z,40.73
2019-02-11T06:34:26.057Z,36.13
2019-02-11T06:36:55.833Z,43.17
2019-02-11T06:39:25.551Z,35.40
2019-02-11T06:41:55.279Z,31.87
2019-02-11T06:44:24.978Z,32.10
2019-02-11T06:46:54.658Z,30.50
2019-02-11T06:49:25.361Z,31.73
2019-02-11T06:51:57.681Z,28.77
2019-02-11T06:54:27.377Z,28.47
2019-02-11T06:56:57.055Z,28.83
2019-02-11T06:59:26.773Z,30.27
2019-02-11T07:01:56.454Z,27.27
2019-02-11T07:04:26.980Z,27.10
2019-02-11T07:06:56.651Z,26.73
2019-02-11T07:09:26.383Z,31.50
2019-02-11T07:11:56.088Z,30.50
2019-02-11T07:14:25.847Z,29.63
2019-02-11T07:16:55.543Z,27.33
2019-02-11T07:19:25.264Z,26.13
2019-02-11T07:21:54.919Z,23.77
2019-02-11T07:24:25.257Z,22.20
2019-02-11T07:26:54.957Z,21.57
2019-02-11T07:29:24.583Z,22.20
2019-02-11T07:31:54.298Z,22.23
2019-02-11T07:34:24.002Z,23.10
2019-02-11T07:36:53.682Z,21.63
2019-02-11T07:39:25.458Z,18.53
2019-02-11T07:42:12.351Z,20.27
2019-02-11T07:44:48.838Z,18.33
2019-02-11T07:47:18.514Z,18.63
2019-02-11T07:49:48.163Z,17.50
2019-02-11T07:52:17.863Z,15.63
2019-02-11T07:54:47.602Z,17.90
2019-02-11T07:57:17.280Z,18.03
2019-02-11T07:59:49.190Z,17.13
2019-02-11T08:02:20.319Z,16.87
2019-02-11T08:04:50.032Z,16.60
2019-02-11T08:07:19.710Z,14.50
2019-02-11T08:09:49.410Z,15.17
2019-02-11T08:12:19.046Z,14.03
2019-02-11T08:14:48.744Z,14.57
2019-02-11T08:17:18.418Z,14.47
2019-02-11T08:19:49.038Z,14.57
2019-02-11T08:22:18.746Z,14.23
2019-02-11T08:24:49.017Z,14.43
2019-02-11T08:27:18.758Z,13.70
2019-02-11T08:29:48.438Z,14.73
2019-02-11T08:32:18.141Z,15.93
2019-02-11T08:34:47.843Z,14.87
2019-02-11T08:37:17.591Z,17.87
2019-02-11T08:39:47.271Z,14.60
2019-02-11T08:42:16.950Z,13.90
2019-02-11T08:44:46.701Z,12.67
2019-02-11T08:47:16.708Z,13.40
2019-02-11T08:49:46.430Z,11.67
2019-02-11T08:52:16.127Z,12.50
2019-02-11T08:54:45.836Z,13.10
2019-02-11T08:57:15.519Z,11.87
2019-02-11T08:59:45.180Z,11.10
2019-02-11T09:02:14.810Z,10.97
2019-02-11T09:04:44.599Z,10.77
2019-02-11T09:07:14.739Z,12.00
2019-02-11T09:09:44.395Z,11.23
2019-02-11T09:12:14.078Z,11.00
2019-02-11T09:14:43.773Z,12.27
2019-02-11T09:17:13.416Z,11.43
2019-02-11T09:19:43.086Z,10.50
2019-02-11T09:22:13.097Z,10.13
2019-02-11T09:24:42.778Z,8.50
2019-02-11T09:27:12.422Z,10.07
2019-02-11T09:29:42.078Z,9.47
2019-02-11T09:32:11.739Z,9.10
2019-02-11T09:34:41.518Z,9.57
2019-02-11T09:37:11.218Z,8.97
2019-02-11T09:39:40.850Z,9.00
2019-02-11T09:42:10.544Z,9.60
2019-02-11T09:44:40.282Z,9.30
2019-02-11T09:47:09.965Z,8.73
2019-02-11T09:49:39.683Z,9.43
2019-02-11T09:52:09.368Z,8.27
2019-02-11T09:54:38.998Z,7.80
2019-02-11T09:57:11.449Z,7.80
2019-02-11T09:59:41.077Z,8.00
2019-02-11T10:02:10.754Z,8.40
2019-02-11T10:04:40.448Z,9.23
2019-02-11T10:07:10.142Z,8.77
2019-02-11T10:09:39.802Z,9.20
2019-02-11T10:12:11.525Z,9.27
2019-02-11T10:14:41.203Z,9.20
2019-02-11T10:17:10.869Z,11.93
2019-02-11T10:19:40.532Z,9.30
2019-02-11T10:22:10.222Z,6.93
2019-02-11T10:24:39.963Z,7.80
2019-02-11T10:27:09.690Z,7.70
2019-02-11T10:29:39.375Z,6.97
2019-02-11T10:32:09.211Z,5.87
2019-02-11T10:34:38.890Z,6.00
2019-02-11T10:37:08.566Z,7.83
2019-02-11T10:39:39.049Z,7.93
2019-02-11T10:42:09.387Z,7.57
2019-02-11T10:44:39.031Z,7.03
2019-02-11T10:47:08.971Z,7.10
2019-02-11T10:49:38.686Z,6.13
2019-02-11T10:52:08.307Z,7.10
2019-02-11T10:54:37.998Z,6.60
2019-02-11T10:57:07.686Z,6.17
2019-02-11T10:59:37.377Z,5.97
2019-02-11T11:02:07.506Z,6.33
2019-02-11T11:04:37.190Z,5.50
2019-02-11T11:07:06.854Z,5.43
2019-02-11T11:09:36.553Z,5.07
2019-02-11T11:12:07.648Z,4.97
2019-02-11T11:14:37.329Z,5.27
2019-02-11T11:17:08.658Z,6.63
2019-02-11T11:19:38.889Z,7.40
2019-02-11T11:22:08.643Z,5.67
2019-02-11T11:24:38.321Z,5.83
2019-02-11T11:27:08.046Z,5.83
2019-02-11T11:29:37.704Z,5.23
2019-02-11T11:32:07.510Z,9.17
2019-02-11T11:34:37.170Z,6.93
2019-02-11T11:37:06.880Z,6.20
2019-02-11T11:39:36.574Z,6.00
2019-02-11T11:42:06.222Z,5.60
2019-02-11T11:44:35.893Z,6.70
2019-02-11T11:47:05.614Z,6.70
2019-02-11T11:49:35.330Z,5.60
2019-02-11T11:52:06.003Z,6.17
2019-02-11T11:54:35.745Z,5.10
2019-02-11T11:57:05.539Z,5.27
2019-02-11T11:59:35.166Z,5.90
2019-02-11T12:02:04.929Z,5.03
2019-02-11T12:04:34.610Z,4.60
2019-02-11T12:07:04.423Z,5.87
2019-02-11T12:09:34.083Z,5.53
2019-02-11T12:12:03.864Z,7.17
2019-02-11T12:14:33.555Z,6.77
2019-02-11T12:17:03.899Z,5.80
2019-02-11T12:19:33.640Z,6.53
2019-02-11T12:22:03.480Z,5.10
2019-02-11T12:24:33.140Z,7.47
2019-02-11T12:27:02.876Z,3.60
2019-02-11T12:29:32.597Z,4.43
2019-02-11T12:32:02.226Z,3.40
2019-02-11T12:34:31.976Z,3.17
2019-02-11T12:37:01.610Z,3.93
2019-02-11T12:39:31.296Z,3.97
2019-02-11T12:42:00.953Z,4.40
2019-02-11T12:44:30.683Z,5.07
2019-02-11T12:47:13.051Z,5.10
2019-02-11T12:49:31.799Z,5.67
2019-02-11T12:52:01.488Z,6.10
2019-02-11T12:54:31.213Z,7.10
2019-02-11T12:57:00.854Z,6.57
2019-02-11T12:59:30.689Z,8.17
2019-02-11T13:02:00.398Z,9.20
2019-02-11T13:04:30.101Z,8.33
2019-02-11T13:06:59.828Z,6.83
2019-02-11T13:09:31.230Z,7.63
2019-02-11T13:12:00.984Z,6.80
2019-02-11T13:14:31.367Z,10.93
2019-02-11T13:17:14.152Z,8.57
2019-02-11T13:19:32.403Z,9.57
2019-02-11T13:22:02.121Z,9.90
2019-02-11T13:24:31.768Z,11.90
2019-02-11T13:27:01.439Z,11.57
2019-02-11T13:29:31.240Z,15.40
2019-02-11T13:32:00.947Z,9.07
2019-02-11T13:34:30.670Z,15.17
2019-02-11T13:37:00.408Z,11.03
2019-02-11T13:39:31.145Z,74.53
2019-02-11T13:42:00.904Z,96.80
2019-02-11T13:44:30.607Z,35.60
2019-02-11T13:47:00.326Z,40.73
2019-02-11T13:49:32.818Z,46.57
2019-02-11T13:52:02.563Z,35.50
2019-02-11T13:54:32.675Z,29.07
2019-02-11T13:57:02.361Z,13.57
2019-02-11T13:59:32.025Z,15.60
2019-02-11T14:02:01.685Z,23.07
2019-02-11T14:04:31.949Z,25.37
2019-02-11T14:07:01.638Z,21.67
2019-02-11T14:09:31.357Z,18.47
2019-02-11T14:12:01.046Z,15.50
2019-02-11T14:14:31.614Z,16.27
2019-02-11T14:17:01.255Z,28.23
2019-02-11T14:19:31.031Z,22.33
2019-02-11T14:22:00.705Z,30.83
2019-02-11T14:24:30.411Z,30.83
2019-02-11T14:27:00.066Z,38.20
2019-02-11T14:29:29.851Z,30.70
2019-02-11T14:31:59.565Z,42.07
2019-02-11T14:34:29.241Z,46.27
2019-02-11T14:36:58.916Z,50.27
2019-02-11T14:39:28.631Z,35.97
2019-02-11T14:41:58.293Z,29.57
2019-02-11T14:44:27.988Z,23.47
2019-02-11T14:46:57.694Z,27.80
2019-02-11T14:49:27.343Z,16.30
2019-02-11T14:51:57.008Z,14.83
2019-02-11T14:54:26.647Z,14.97
2019-02-11T14:56:56.342Z,10.50
2019-02-11T14:59:26.055Z,7.93
2019-02-11T15:01:55.782Z,8.23
2019-02-11T15:04:25.456Z,8.23
2019-02-11T15:06:55.139Z,8.47
2019-02-11T15:09:24.918Z,8.60
2019-02-11T15:11:55.099Z,7.87
2019-02-11T15:14:24.875Z,9.90
2019-02-11T15:16:54.603Z,11.87
2019-02-11T15:19:24.266Z,10.30
2019-02-11T15:21:53.958Z,11.17
2019-02-11T15:24:23.702Z,11.30
2019-02-11T15:26:53.414Z,15.50
2019-02-11T15:29:23.609Z,15.10
2019-02-11T15:31:53.314Z,19.23
2019-02-11T15:34:23.026Z,13.57
2019-02-11T15:36:52.779Z,14.53
2019-02-11T15:39:22.474Z,14.40
2019-02-11T15:41:52.171Z,23.87
2019-02-11T15:44:21.887Z,22.43
2019-02-11T15:46:51.550Z,22.77
2019-02-11T15:49:21.270Z,26.17
2019-02-11T15:51:50.936Z,26.00
2019-02-11T15:54:20.591Z,28.13
2019-02-11T15:56:50.338Z,31.70
2019-02-11T15:59:20.027Z,35.33
2019-02-11T16:01:50.439Z,23.93
2019-02-11T16:04:20.154Z,14.93
2019-02-11T16:06:49.856Z,16.80
2019-02-11T16:09:19.690Z,15.43
2019-02-11T16:11:49.442Z,17.37
2019-02-11T16:14:19.111Z,17.23
2019-02-11T16:16:48.816Z,19.47
2019-02-11T16:19:18.567Z,26.60
2019-02-11T16:21:48.326Z,20.60
2019-02-11T16:24:18.070Z,20.93
2019-02-11T16:26:47.808Z,19.60
2019-02-11T16:29:17.543Z,26.30
2019-02-11T16:31:47.267Z,20.20
2019-02-11T16:34:16.928Z,24.57
2019-02-11T16:36:46.635Z,23.80
2019-02-11T16:39:16.351Z,20.77
2019-02-11T16:41:45.990Z,46.73
2019-02-11T16:44:15.698Z,34.97
2019-02-11T16:46:45.429Z,24.90
2019-02-11T16:49:15.123Z,25.87
2019-02-11T16:51:44.801Z,26.63
2019-02-11T16:54:14.476Z,49.27
2019-02-11T16:56:44.119Z,46.83
2019-02-11T16:59:13.835Z,54.20
2019-02-11T17:01:43.570Z,44.63
2019-02-11T17:04:13.800Z,47.13
2019-02-11T17:06:43.499Z,30.10
2019-02-11T17:09:13.183Z,33.70
2019-02-11T17:11:42.811Z,38.00
2019-02-11T17:14:12.501Z,44.00
2019-02-11T17:16:42.401Z,46.33
2019-02-11T17:19:16.413Z,48.20
2019-02-11T17:21:46.080Z,47.03
2019-02-11T17:24:15.873Z,34.30
2019-02-11T17:26:45.530Z,28.57
2019-02-11T17:29:15.209Z,23.87
2019-02-11T17:31:44.938Z,23.30
2019-02-11T17:34:14.577Z,27.57
2019-02-11T17:36:44.267Z,30.63
2019-02-11T17:39:13.906Z,28.53
2019-02-11T17:41:43.551Z,27.57
2019-02-11T17:44:13.426Z,27.37
2019-02-11T17:46:43.080Z,27.63
2019-02-11T17:49:17.868Z,31.73
2019-02-11T17:51:44.083Z,27.97
2019-02-11T17:54:14.087Z,28.07
2019-02-11T17:56:43.727Z,24.00
2019-02-11T17:59:13.350Z,28.47
2019-02-11T18:01:43.148Z,32.87
2019-02-11T18:04:12.790Z,23.60
2019-02-11T18:06:42.466Z,15.83
2019-02-11T18:09:12.174Z,18.03
2019-02-11T18:11:41.825Z,18.87
2019-02-11T18:14:11.589Z,13.07
2019-02-11T18:16:42.256Z,14.80
2019-02-11T18:19:11.959Z,19.67
2019-02-11T18:21:41.640Z,17.90
2019-02-11T18:24:11.372Z,15.20
2019-02-11T18:26:41.056Z,17.73
2019-02-11T18:29:10.775Z,16.57
2019-02-11T18:31:40.458Z,17.57
2019-02-11T18:34:10.221Z,19.77
2019-02-11T18:36:39.931Z,19.30
2019-02-11T18:39:10.378Z,20.20
2019-02-11T18:41:42.010Z,16.77
2019-02-11T18:44:11.694Z,19.27
2019-02-11T18:46:41.365Z,20.40
2019-02-11T18:49:15.153Z,16.50
2019-02-11T18:51:44.789Z,15.37
2019-02-11T18:54:14.432Z,14.90
2019-02-11T18:56:44.137Z,20.53
2019-02-11T18:59:13.803Z,21.50
2019-02-11T19:01:43.466Z,23.43
2019-02-11T19:04:13.117Z,25.27
2019-02-11T19:06:42.798Z,23.20
2019-02-11T19:09:16.092Z,21.43
2019-02-11T19:11:45.795Z,23.00
2019-02-11T19:14:15.430Z,24.40
2019-02-11T19:16:45.128Z,23.53
2019-02-11T19:19:14.775Z,27.10
2019-02-11T19:21:44.421Z,21.67
2019-02-11T19:24:14.099Z,24.87
2019-02-11T19:26:44.242Z,17.30
2019-02-11T19:29:13.914Z,15.50
2019-02-11T19:31:43.571Z,15.40
2019-02-11T19:34:13.301Z,20.53
2019-02-11T19:36:42.973Z,20.40
2019-02-11T19:39:12.626Z,13.07
2019-02-11T19:41:43.146Z,14.10
2019-02-11T19:44:12.930Z,16.33
2019-02-11T19:46:42.670Z,13.33
2019-02-11T19:49:12.423Z,12.57
2019-02-11T19:51:42.124Z,12.53
2019-02-11T19:54:11.802Z,12.57
2019-02-11T19:56:41.527Z,11.53
2019-02-11T19:59:11.166Z,11.73
2019-02-11T20:01:40.830Z,15.33
2019-02-11T20:04:10.477Z,12.80
2019-02-11T20:06:40.191Z,12.47
2019-02-11T20:09:10.052Z,12.63
2019-02-11T20:11:40.010Z,10.03
2019-02-11T20:14:09.670Z,11.20
2019-02-11T20:16:39.375Z,12.63
2019-02-11T20:19:09.109Z,16.57
2019-02-11T20:21:38.787Z,20.07
2019-02-11T20:24:08.551Z,20.87
2019-02-11T20:26:38.202Z,27.83
2019-02-11T20:29:07.889Z,22.67
2019-02-11T20:31:37.664Z,23.03
2019-02-11T20:34:07.298Z,20.53
2019-02-11T20:36:36.930Z,15.43
2019-02-11T20:39:07.595Z,14.17
2019-02-11T20:41:37.306Z,15.93
2019-02-11T20:44:07.598Z,24.43
2019-02-11T20:46:37.246Z,17.60
2019-02-11T20:49:06.967Z,15.90
2019-02-11T20:51:36.658Z,18.63
2019-02-11T20:54:06.427Z,36.70
2019-02-11T20:56:36.159Z,17.23
2019-02-11T20:59:05.799Z,15.20
2019-02-11T21:01:35.458Z,13.03
2019-02-11T21:04:05.123Z,12.13
2019-02-11T21:06:34.835Z,14.53
2019-02-11T21:09:05.986Z,12.20
2019-02-11T21:11:35.638Z,9.80
2019-02-11T21:14:05.305Z,11.43
2019-02-11T21:16:34.960Z,9.53
2019-02-11T21:19:04.614Z,10.80
2019-02-11T21:21:34.527Z,13.23
2019-02-11T21:24:04.348Z,10.23
2019-02-11T21:26:34.020Z,10.97
2019-02-11T21:29:05.502Z,12.47
2019-02-11T21:31:36.923Z,10.40
2019-02-11T21:34:06.897Z,8.97
2019-02-11T21:36:36.534Z,9.07
2019-02-11T21:39:08.023Z,9.40
2019-02-11T21:41:38.133Z,9.07
2019-02-11T21:44:07.805Z,10.37
2019-02-11T21:46:37.446Z,10.47
2019-02-11T21:49:07.163Z,11.90
2019-02-11T21:51:36.818Z,10.27
2019-02-11T21:54:06.587Z,10.67
2019-02-11T21:56:36.307Z,9.57
2019-02-11T21:59:05.922Z,9.80
2019-02-11T22:01:35.620Z,10.17
2019-02-11T22:04:05.308Z,11.53
2019-02-11T22:06:35.474Z,12.23
2019-02-11T22:09:09.311Z,11.20
2019-02-11T22:11:42.295Z,12.60
2019-02-11T22:14:11.938Z,15.40
2019-02-11T22:16:42.423Z,14.83
2019-02-11T22:19:12.177Z,13.80
2019-02-11T22:21:41.849Z,12.87
2019-02-11T22:24:11.536Z,11.37
2019-02-11T22:26:41.201Z,9.93
2019-02-11T22:29:10.838Z,9.60
2019-02-11T22:31:40.603Z,10.43
2019-02-11T22:34:10.242Z,9.87
2019-02-11T22:36:39.871Z,10.73
2019-02-11T22:39:10.174Z,10.80
2019-02-11T22:41:39.913Z,8.57
2019-02-11T22:44:09.609Z,10.10
2019-02-11T22:46:39.321Z,9.60
2019-02-11T22:49:08.955Z,9.37
2019-02-11T22:51:38.601Z,10.43
2019-02-11T22:54:08.294Z,10.30
2019-02-11T22:56:37.942Z,11.03
2019-02-11T22:59:07.579Z,11.50
2019-02-11T23:01:37.305Z,11.60
2019-02-11T23:04:06.973Z,12.27
2019-02-11T23:06:36.594Z,10.37
2019-02-11T23:09:12.034Z,11.37
2019-02-11T23:11:41.695Z,10.90
2019-02-11T23:14:11.798Z,10.93
2019-02-11T23:16:41.931Z,10.50
2019-02-11T23:19:11.593Z,13.07
2019-02-11T23:21:41.313Z,12.83
2019-02-11T23:24:10.962Z,11.20
2019-02-11T23:26:42.123Z,11.43
2019-02-11T23:29:12.593Z,12.00
2019-02-11T23:31:42.273Z,12.10
2019-02-11T23:34:11.905Z,11.23
2019-02-11T23:36:41.590Z,11.00
2019-02-11T23:39:17.689Z,12.00
2019-02-11T23:41:47.373Z,11.30
2019-02-11T23:44:17.031Z,13.53
2019-02-11T23:46:46.779Z,11.70
2019-02-11T23:49:16.497Z,11.80
2019-02-11T23:51:46.145Z,12.57
2019-02-11T23:54:15.786Z,8.70
2019-02-11T23:56:45.445Z,10.33
2019-02-11T23:59:15.085Z,10.67
